EGLLLIRA

Guest
Details From EGLL - London Heathrow
To LIRA - Ciampino
Flight Number -
Tags Generated
Created
Modified
Stats Distance 790 nm / 1,462 km
Max Altitude 0 ft / 0 m
Waypoints 5
Social Downloads 7
Likes 0
Share VATSIM

Download

Looking for another format? Having issues loading an existing format? Contact us
Advertisement - Login to hide

Notes

Generated

Route

EGLL ROTSI LIN28 R1815 LIRA

ID Type Via Altitude Latitude Longitude Leg Dist Tot Dist Heading (true) Name
O EGLL APT - 0 ft / 0 m 51.46477˚ -0.48695˚ - 0 nm - -
ROTSI FIX - 0 ft / 0 m 48.27667˚ 4.63417˚ 275 nm 275 nm 132° / 136° -
LIN28 FIX - 0 ft / 0 m 45.12811˚ 8.81534˚ 255 nm 531 nm 136° / 139° -
R1815 FIX - 0 ft / 0 m 41.80806˚ 12.58883˚ 258 nm 789 nm 139° / 142° -
O LIRA APT - 0 ft / 0 m 41.80806˚ 12.58883˚ 0 nm 789 nm 0° / 180° -

Altitude Profile

Advertisement - Login to hide

Weather


0- 5 10 15 20 25 30 35+ Temperature / ° C

Clouds and Precipitation
Forecast for 2018-05-20 12:00 UTC. Updated 2 hours ago

Ground ~20,000 ft ~40,000 ft Winds

EGLL

Details ICAO EGLL (LHR)
Name London Heathrow
Region United Kingdom
Timezone Europe/London (UTC+1.0)
Stats Elevation 83 ft / 25 m (AMSL)
Location 51.471218° -0.460978°
Runways 2
Magnetic Variation 0.497° W

METAR

EGLL 201020Z AUTO 11006KT 040V150 9999 NCD 18/09 Q1023 NOSIG

Decode

TAF

TAF EGLL 200504Z 2006/2112 14003KT 7000 FEW040 BECMG 2006/2009 9999 BECMG 2100/2103 7000 PROB40 TEMPO 2103/2108 4500 HZ BECMG 2107/2110 9999 PROB30 TEMPO 2110/2112 7000 SHRA

Decode

Departure Runways

ID Width Length Bearing (true) Bearing (mag) Surface Threshold Offset Overrun Length
09L 164 ft / 50 m 12,811 ft / 3,905 m 89.64° 90.14° Asphalt 1,004 ft / 306 m 0 ft / 0 m
09R 164 ft / 50 m 12,019 ft / 3,663 m 89.67° 90.17° Asphalt 1,007 ft / 307 m 0 ft / 0 m
27L 164 ft / 50 m 12,019 ft / 3,663 m 269.71° 270.21° Asphalt 0 ft / 0 m 69 ft / 21 m
27R 164 ft / 50 m 12,811 ft / 3,905 m 269.69° 270.19° Asphalt 0 ft / 0 m 69 ft / 21 m

LIRA

Details ICAO LIRA (CIA)
Name CIAMPINO
Region Italy
Timezone Europe/Rome (UTC+2.0)
Stats Elevation 427 ft / 130 m (AMSL)
Location 41.799228° 12.594917°
Runways 1
Magnetic Variation 3.103° E

METAR

LIRA 201020Z 32006KT 290V010 9999 FEW030 24/13 Q1013

Decode

TAF

TAF LIRA 200500Z 2006/2106 VRB05KT 9999 SCT030 BECMG 2010/2012 25010KT TEMPO 2012/2015 SHRA BECMG 2016/2018 VRB05KT

Decode

Destination Runways

ID Width Length Bearing (true) Bearing (mag) Surface Threshold Offset Overrun Length
15 154 ft / 47 m 7,246 ft / 2,209 m 152.79° 149.69° Asphalt 0 ft / 0 m 0 ft / 0 m
33 154 ft / 47 m 7,246 ft / 2,209 m 332.80° 329.70° Asphalt 0 ft / 0 m 0 ft / 0 m

Approach Navaids

Runway Type Ident Frequency Range Bearing (true) Bearing (mag) Slope Elevation
15 Localiser CIA 109.90 MHz 18 nm / 33 km 152.81° 149.71° - 426 ft / 130 m (AMSL)
15 Glidescope CIA 109.90 MHz 10 nm / 19 km 152.79° 149.69° 3.00° 384 ft / 117 m (AMSL)

Popular Alternatives